CheckWX is a tool to help pilots better visualize weather data.  It is not intended as a substitute for an official pre-flight weather briefing.

06:48:37 UTC

YPEA TAF
RAAF Base Pearce Airport
Bullsbrook, Australia
TAF YPEA 170439Z 1706/1724 10010KT 9999 SCT045 FM172100 06006KT CAVOK

Jun-17@
06:00 UTC

Jun-17 @ 06:00 UTC

Jun-17@
21:00 UTC

Jun-17 @ 21:00 UTC

TAF YPEA 170439Z 1706/1724 10010KT 9999 SCT045
Wind
  • 100° at 10 KTS
Cloud Levels
  • Scattered at 4,500' AGL

Jun-17@
21:00 UTC

Jun-17 @ 21:00 UTC

Jun-18@
00:00 UTC

Jun-18 @ 00:00 UTC

FM172100 06006KT CAVOK

From

From Standard forecast or significant change

Wind
  • 060° at 6 KTS
Conditions
No significant weather
Cloud Levels
  • No significant clouds